Aviation Digital Data Service (ADDS)

Output produced by METARs form (1430 UTC 10 July 2020)
found at http://www.aviationweather.gov/metar/data/
 
KMOB 101403Z 33010KT 7SM FEW008 SCT026 BKN070 28/23 A3005 RMK AO2 T02780233 $
KMOB 101356Z 33010KT 7SM SCT013 BKN026 BKN075 27/24 A3005 RMK AO2 SLP173 CB DSNT N-NE T02720239 $
KMOB 101347Z 32010G18KT 6SM BR SCT013 BKN026 BKN075 27/24 A3005 RMK AO2 CB DSNT N-NE T02670244 $
KMOB 101331Z 31007G17KT 6SM BR BKN010 BKN075 BKN180 27/25 A3005 RMK AO2 LTG DSNT N CB DSNT N-NE T02670250 $
KMOB 101145Z 1012/1112 27005KT P6SM FEW020 FEW040 SCT250 
     FM101400 29008KT P6SM VCTS SCT025CB SCT150 
     TEMPO 1014/1018 5SM TSRA BKN030CB 
     FM101800 30008KT P6SM VCTS SCT035CB SCT150 
     TEMPO 1019/1023 VRB25KT 2SM TSRA BKN035CB 
     FM110000 31006KT P6SM SCT050 SCT250